RYR45MF LOWW-LFML
Flight info
| Callsign | RYR45MF |
|---|---|
| Flight time | 1h 29m |
| Altitude | 34000 |
| Route | IMVO3C/29 OSPEN DCT ABRUK DCT SETAL DCT DETSA/N0441F350 DCT LAGEN/N0389F230 DCT ENOBA DCT ASBOP DCT BORDI DCT PIGOS DCT STP/N0363F180 A3 RUBIT G7 LANKO |
| Aircraft | A320/M-SDE3FGHIRWY/LB1 |
Departure
| Time | 2026-04-24 19:24 |
|---|---|
| Airport | Vienna International Airport (LOWW) |
Arrival
| Time | 2026-04-24 20:53 |
|---|---|
| Airport | Marseille Provence Airport (LFML) |
| Time | Latitude | Longitude | Altitude | Speed | Heading |
|---|---|---|---|---|---|
| 2026-04-24 18:54 | 48.12017 | 16.55613 | 608 ft | 0 kts | 115° |
| 2026-04-24 19:10 | 48.12021 | 16.55598 | 625 ft | 4 kts | 118° |
| 2026-04-24 19:10 | 48.12036 | 16.55565 | 626 ft | 4 kts | 136° |
| 2026-04-24 19:10 | 48.12057 | 16.55546 | 623 ft | 4 kts | 181° |
| 2026-04-24 19:11 | 48.12067 | 16.55548 | 614 ft | 0 kts | 206° |
| 2026-04-24 19:12 | 48.12065 | 16.55546 | 614 ft | 3 kts | 206° |
| 2026-04-24 19:12 | 48.12009 | 16.55506 | 618 ft | 14 kts | 206° |
| 2026-04-24 19:13 | 48.11946 | 16.55460 | 610 ft | 15 kts | 206° |
| 2026-04-24 19:13 | 48.11823 | 16.55436 | 617 ft | 14 kts | 154° |
| 2026-04-24 19:13 | 48.11757 | 16.55598 | 616 ft | 23 kts | 117° |
| 2026-04-24 19:13 | 48.11677 | 16.55843 | 615 ft | 25 kts | 116° |
| 2026-04-24 19:14 | 48.11596 | 16.56087 | 619 ft | 27 kts | 117° |
| 2026-04-24 19:14 | 48.11513 | 16.56345 | 614 ft | 28 kts | 115° |
| 2026-04-24 19:14 | 48.11425 | 16.56614 | 618 ft | 28 kts | 117° |
| 2026-04-24 19:14 | 48.11346 | 16.56852 | 612 ft | 26 kts | 115° |
| 2026-04-24 19:15 | 48.11266 | 16.57101 | 618 ft | 27 kts | 117° |
| 2026-04-24 19:15 | 48.11191 | 16.57328 | 615 ft | 20 kts | 115° |
| 2026-04-24 19:15 | 48.11132 | 16.57510 | 618 ft | 14 kts | 123° |
| 2026-04-24 19:15 | 48.11059 | 16.57512 | 616 ft | 7 kts | 205° |
| 2026-04-24 19:16 | 48.11058 | 16.57511 | 615 ft | 0 kts | 205° |
| 2026-04-24 19:22 | 48.11039 | 16.57498 | 610 ft | 9 kts | 205° |
| 2026-04-24 19:22 | 48.10958 | 16.57428 | 616 ft | 13 kts | 243° |
| 2026-04-24 19:22 | 48.10969 | 16.57365 | 621 ft | 0 kts | 294° |
| 2026-04-24 19:23 | 48.10974 | 16.57351 | 617 ft | 9 kts | 296° |
| 2026-04-24 19:23 | 48.11123 | 16.56900 | 616 ft | 85 kts | 296° |
| 2026-04-24 19:23 | 48.11475 | 16.55816 | 619 ft | 143 kts | 296° |
| 2026-04-24 19:23 | 48.11969 | 16.54334 | 874 ft | 164 kts | 298° |
| 2026-04-24 19:24 | 48.12178 | 16.52694 | 1601 ft | 169 kts | 261° |
| 2026-04-24 19:24 | 48.11557 | 16.51156 | 2182 ft | 183 kts | 223° |
| 2026-04-24 19:24 | 48.10457 | 16.49971 | 2519 ft | 206 kts | 219° |
| 2026-04-24 19:24 | 48.09227 | 16.48707 | 2959 ft | 220 kts | 218° |
| 2026-04-24 19:25 | 48.07951 | 16.47407 | 3636 ft | 223 kts | 220° |
| 2026-04-24 19:25 | 48.06714 | 16.45943 | 4245 ft | 235 kts | 225° |
| 2026-04-24 19:25 | 48.05428 | 16.44290 | 4646 ft | 259 kts | 226° |
| 2026-04-24 19:25 | 48.04034 | 16.42457 | 5287 ft | 271 kts | 225° |
| 2026-04-24 19:26 | 48.02609 | 16.40579 | 6169 ft | 275 kts | 226° |
| 2026-04-24 19:26 | 48.01167 | 16.38685 | 7065 ft | 277 kts | 226° |
| 2026-04-24 19:26 | 47.99703 | 16.36771 | 7895 ft | 282 kts | 226° |
| 2026-04-24 19:26 | 47.98214 | 16.34829 | 8709 ft | 287 kts | 226° |
| 2026-04-24 19:27 | 47.96699 | 16.32858 | 9532 ft | 292 kts | 226° |
| 2026-04-24 19:27 | 47.95258 | 16.30709 | 10258 ft | 296 kts | 233° |
| 2026-04-24 19:27 | 47.93839 | 16.28313 | 10523 ft | 320 kts | 233° |
| 2026-04-24 19:27 | 47.92329 | 16.25743 | 10935 ft | 335 kts | 236° |
| 2026-04-24 19:28 | 47.91171 | 16.22756 | 11551 ft | 334 kts | 252° |
| 2026-04-24 19:28 | 47.90311 | 16.19507 | 12260 ft | 339 kts | 252° |
| 2026-04-24 19:28 | 47.89456 | 16.16211 | 12996 ft | 343 kts | 252° |
| 2026-04-24 19:28 | 47.88595 | 16.12875 | 13706 ft | 347 kts | 252° |
| 2026-04-24 19:29 | 47.86843 | 16.06073 | 14997 ft | 355 kts | 252° |
| 2026-04-24 19:29 | 47.85950 | 16.02622 | 15633 ft | 359 kts | 252° |
| 2026-04-24 19:29 | 47.85045 | 15.99136 | 16265 ft | 363 kts | 252° |
| 2026-04-24 19:30 | 47.84127 | 15.95618 | 16890 ft | 366 kts | 252° |
| 2026-04-24 19:30 | 47.83197 | 15.92060 | 17527 ft | 370 kts | 252° |
| 2026-04-24 19:30 | 47.82271 | 15.88523 | 18169 ft | 374 kts | 252° |
| 2026-04-24 19:30 | 47.81308 | 15.84853 | 18722 ft | 377 kts | 252° |
| 2026-04-24 19:31 | 47.80360 | 15.81253 | 19270 ft | 380 kts | 251° |
| 2026-04-24 19:31 | 47.79387 | 15.77567 | 19836 ft | 383 kts | 251° |
| 2026-04-24 19:31 | 47.78410 | 15.73871 | 20404 ft | 386 kts | 253° |
| 2026-04-24 19:31 | 47.77424 | 15.70137 | 20924 ft | 389 kts | 252° |
| 2026-04-24 19:32 | 47.76429 | 15.66379 | 21462 ft | 392 kts | 251° |
| 2026-04-24 19:32 | 47.75424 | 15.62594 | 22008 ft | 395 kts | 252° |
| 2026-04-24 19:32 | 47.74411 | 15.58773 | 22593 ft | 398 kts | 252° |
| 2026-04-24 19:32 | 47.73393 | 15.54935 | 23129 ft | 401 kts | 251° |
| 2026-04-24 19:33 | 47.72365 | 15.51067 | 23617 ft | 404 kts | 251° |
| 2026-04-24 19:33 | 47.71327 | 15.47171 | 24050 ft | 407 kts | 251° |
| 2026-04-24 19:33 | 47.70283 | 15.43252 | 24460 ft | 409 kts | 251° |
| 2026-04-24 19:33 | 47.69229 | 15.39298 | 24882 ft | 412 kts | 251° |
| 2026-04-24 19:34 | 47.68168 | 15.35334 | 25278 ft | 414 kts | 252° |
| 2026-04-24 19:34 | 47.67099 | 15.31352 | 25664 ft | 417 kts | 252° |
| 2026-04-24 19:34 | 47.66034 | 15.27400 | 26042 ft | 419 kts | 252° |
| 2026-04-24 19:34 | 47.64944 | 15.23361 | 26407 ft | 422 kts | 250° |
| 2026-04-24 19:35 | 47.63849 | 15.19308 | 26787 ft | 425 kts | 251° |
| 2026-04-24 19:35 | 47.62740 | 15.15206 | 27112 ft | 429 kts | 251° |
| 2026-04-24 19:35 | 47.61631 | 15.11108 | 27469 ft | 432 kts | 251° |
| 2026-04-24 19:35 | 47.60506 | 15.06961 | 27828 ft | 434 kts | 252° |
| 2026-04-24 19:36 | 47.59373 | 15.02792 | 28161 ft | 437 kts | 252° |
| 2026-04-24 19:36 | 47.58237 | 14.98619 | 28480 ft | 439 kts | 250° |
| 2026-04-24 19:36 | 47.57086 | 14.94412 | 28832 ft | 441 kts | 251° |
| 2026-04-24 19:36 | 47.55931 | 14.90186 | 29184 ft | 443 kts | 252° |
| 2026-04-24 19:37 | 47.54773 | 14.85945 | 29501 ft | 445 kts | 250° |
| 2026-04-24 19:37 | 47.53608 | 14.81688 | 29806 ft | 447 kts | 250° |
| 2026-04-24 19:37 | 47.52450 | 14.77463 | 30124 ft | 449 kts | 252° |
| 2026-04-24 19:37 | 47.51272 | 14.73177 | 30397 ft | 450 kts | 250° |
| 2026-04-24 19:38 | 47.50090 | 14.68883 | 30687 ft | 451 kts | 250° |
| 2026-04-24 19:38 | 47.48900 | 14.64575 | 30931 ft | 453 kts | 250° |
| 2026-04-24 19:38 | 47.47702 | 14.60251 | 31124 ft | 456 kts | 249° |
| 2026-04-24 19:38 | 47.46494 | 14.55908 | 31352 ft | 458 kts | 249° |
| 2026-04-24 19:39 | 47.45279 | 14.51542 | 31585 ft | 459 kts | 250° |
| 2026-04-24 19:39 | 47.44062 | 14.47163 | 31794 ft | 461 kts | 250° |
| 2026-04-24 19:39 | 47.42847 | 14.42782 | 32063 ft | 461 kts | 250° |
| 2026-04-24 19:39 | 47.41630 | 14.38411 | 32383 ft | 460 kts | 249° |
| 2026-04-24 19:40 | 47.40410 | 14.34053 | 32708 ft | 459 kts | 249° |
| 2026-04-24 19:40 | 47.39189 | 14.29708 | 33019 ft | 458 kts | 249° |
| 2026-04-24 19:40 | 47.37968 | 14.25371 | 33333 ft | 457 kts | 249° |
| 2026-04-24 19:40 | 47.36750 | 14.21046 | 33677 ft | 455 kts | 249° |
| 2026-04-24 19:41 | 47.35536 | 14.16748 | 34009 ft | 455 kts | 249° |
| 2026-04-24 19:41 | 47.33139 | 14.08285 | 34102 ft | 445 kts | 248° |
| 2026-04-24 19:42 | 47.30761 | 13.99890 | 34107 ft | 443 kts | 250° |
| 2026-04-24 19:42 | 47.28387 | 13.91513 | 34100 ft | 442 kts | 250° |
| 2026-04-24 19:43 | 47.26018 | 13.83201 | 34103 ft | 442 kts | 249° |
| 2026-04-24 19:43 | 47.23639 | 13.74878 | 34085 ft | 441 kts | 249° |
| 2026-04-24 19:44 | 47.21249 | 13.66568 | 34093 ft | 440 kts | 249° |
| 2026-04-24 19:44 | 47.19247 | 13.59645 | 34095 ft | 439 kts | 251° |
| 2026-04-24 19:45 | 47.16870 | 13.51421 | 34074 ft | 440 kts | 250° |
| 2026-04-24 19:45 | 47.14468 | 13.43119 | 34077 ft | 442 kts | 249° |
| 2026-04-24 19:46 | 47.12050 | 13.34806 | 34078 ft | 443 kts | 248° |
| 2026-04-24 19:46 | 47.09617 | 13.26497 | 34083 ft | 443 kts | 249° |
| 2026-04-24 19:47 | 47.07195 | 13.18239 | 34093 ft | 442 kts | 248° |
| 2026-04-24 19:47 | 47.04762 | 13.09957 | 34095 ft | 441 kts | 249° |
| 2026-04-24 19:48 | 47.02325 | 13.01686 | 34090 ft | 441 kts | 248° |
| 2026-04-24 19:48 | 46.98670 | 12.89354 | 34078 ft | 441 kts | 248° |
| 2026-04-24 19:49 | 46.93756 | 12.72858 | 34088 ft | 442 kts | 249° |
| 2026-04-24 19:50 | 46.88816 | 12.56390 | 34106 ft | 442 kts | 247° |
| 2026-04-24 19:51 | 46.85100 | 12.44063 | 34135 ft | 441 kts | 247° |
| 2026-04-24 19:52 | 46.81376 | 12.31812 | 34155 ft | 441 kts | 246° |
| 2026-04-24 19:52 | 46.78015 | 12.24330 | 34160 ft | 442 kts | 230° |
| 2026-04-24 19:53 | 46.73973 | 12.17560 | 34069 ft | 442 kts | 230° |
| 2026-04-24 19:54 | 46.67933 | 12.07454 | 34071 ft | 443 kts | 229° |
| 2026-04-24 19:54 | 46.63881 | 12.00685 | 34060 ft | 443 kts | 229° |
| 2026-04-24 19:55 | 46.60506 | 11.95051 | 34053 ft | 443 kts | 229° |
| 2026-04-24 19:55 | 46.55760 | 11.87166 | 34050 ft | 443 kts | 229° |
| 2026-04-24 19:56 | 46.51717 | 11.80479 | 34041 ft | 443 kts | 229° |
| 2026-04-24 19:56 | 46.47649 | 11.73752 | 34031 ft | 443 kts | 229° |
| 2026-04-24 19:57 | 46.43583 | 11.67030 | 34025 ft | 443 kts | 229° |
| 2026-04-24 19:57 | 46.39505 | 11.60323 | 34072 ft | 443 kts | 229° |
| 2026-04-24 19:58 | 46.35423 | 11.53629 | 34078 ft | 444 kts | 229° |
| 2026-04-24 19:58 | 46.31326 | 11.46920 | 34089 ft | 444 kts | 228° |
| 2026-04-24 19:59 | 46.27226 | 11.40225 | 34110 ft | 444 kts | 228° |
| 2026-04-24 19:59 | 46.23141 | 11.33582 | 34127 ft | 444 kts | 228° |
| 2026-04-24 20:00 | 46.19031 | 11.26903 | 34121 ft | 444 kts | 228° |
| 2026-04-24 20:00 | 46.14920 | 11.20221 | 34173 ft | 445 kts | 228° |
| 2026-04-24 20:01 | 46.10804 | 11.13563 | 34189 ft | 444 kts | 228° |
| 2026-04-24 20:01 | 46.06685 | 11.06924 | 34195 ft | 443 kts | 228° |
| 2026-04-24 20:02 | 46.03275 | 11.01427 | 34180 ft | 443 kts | 228° |
| 2026-04-24 20:02 | 45.98485 | 10.93749 | 34174 ft | 443 kts | 228° |
| 2026-04-24 20:03 | 45.94367 | 10.87155 | 34150 ft | 443 kts | 228° |
| 2026-04-24 20:03 | 45.90248 | 10.80565 | 34152 ft | 443 kts | 228° |
| 2026-04-24 20:04 | 45.86122 | 10.73981 | 34134 ft | 443 kts | 227° |
| 2026-04-24 20:04 | 45.81990 | 10.67412 | 34090 ft | 444 kts | 227° |
| 2026-04-24 20:05 | 45.77850 | 10.60849 | 34113 ft | 443 kts | 227° |
| 2026-04-24 20:05 | 45.73709 | 10.54308 | 34093 ft | 443 kts | 227° |
| 2026-04-24 20:06 | 45.69564 | 10.47761 | 34071 ft | 443 kts | 227° |
| 2026-04-24 20:06 | 45.65447 | 10.41275 | 34045 ft | 443 kts | 227° |
| 2026-04-24 20:07 | 45.61967 | 10.35808 | 34040 ft | 444 kts | 227° |
| 2026-04-24 20:07 | 45.57143 | 10.28227 | 34000 ft | 444 kts | 227° |
| 2026-04-24 20:08 | 45.52973 | 10.21716 | 33994 ft | 444 kts | 227° |
| 2026-04-24 20:08 | 45.48800 | 10.15228 | 33991 ft | 444 kts | 227° |
| 2026-04-24 20:09 | 45.44628 | 10.08725 | 34003 ft | 443 kts | 227° |
| 2026-04-24 20:09 | 45.40469 | 10.02262 | 34009 ft | 443 kts | 227° |
| 2026-04-24 20:10 | 45.36331 | 9.95847 | 34010 ft | 442 kts | 227° |
| 2026-04-24 20:10 | 45.32162 | 9.89397 | 34008 ft | 442 kts | 226° |
| 2026-04-24 20:11 | 45.27992 | 9.82963 | 34008 ft | 443 kts | 226° |
| 2026-04-24 20:11 | 45.23814 | 9.76536 | 34004 ft | 443 kts | 226° |
| 2026-04-24 20:12 | 45.19631 | 9.70108 | 34010 ft | 443 kts | 226° |
| 2026-04-24 20:12 | 45.15436 | 9.63687 | 34009 ft | 443 kts | 226° |
| 2026-04-24 20:13 | 45.11269 | 9.57322 | 34026 ft | 442 kts | 226° |
| 2026-04-24 20:13 | 45.07087 | 9.50946 | 34041 ft | 442 kts | 226° |
| 2026-04-24 20:14 | 45.02891 | 9.44587 | 34047 ft | 441 kts | 226° |
| 2026-04-24 20:14 | 44.98703 | 9.38238 | 34052 ft | 441 kts | 226° |
| 2026-04-24 20:15 | 44.94522 | 9.31897 | 34058 ft | 441 kts | 226° |
| 2026-04-24 20:15 | 44.90359 | 9.25607 | 34066 ft | 441 kts | 226° |
| 2026-04-24 20:16 | 44.86156 | 9.19290 | 34062 ft | 441 kts | 226° |
| 2026-04-24 20:16 | 44.81955 | 9.12963 | 34071 ft | 441 kts | 226° |
| 2026-04-24 20:17 | 44.77752 | 9.06639 | 34076 ft | 442 kts | 225° |
| 2026-04-24 20:17 | 44.71429 | 8.97181 | 34089 ft | 442 kts | 226° |
| 2026-04-24 20:18 | 44.67239 | 8.90933 | 34092 ft | 442 kts | 225° |
| 2026-04-24 20:18 | 44.63006 | 8.84648 | 34103 ft | 442 kts | 226° |
| 2026-04-24 20:19 | 44.58774 | 8.78375 | 34107 ft | 442 kts | 225° |
| 2026-04-24 20:19 | 44.54547 | 8.72111 | 34110 ft | 441 kts | 225° |
| 2026-04-24 20:20 | 44.50328 | 8.65875 | 34102 ft | 441 kts | 225° |
| 2026-04-24 20:20 | 44.46103 | 8.59639 | 34099 ft | 441 kts | 226° |
| 2026-04-24 20:21 | 44.41871 | 8.53409 | 34109 ft | 441 kts | 225° |
| 2026-04-24 20:21 | 44.37962 | 8.46860 | 34106 ft | 442 kts | 234° |
| 2026-04-24 20:22 | 44.34483 | 8.39780 | 34109 ft | 442 kts | 235° |
| 2026-04-24 20:22 | 44.30989 | 8.32698 | 34110 ft | 442 kts | 234° |
| 2026-04-24 20:23 | 44.27498 | 8.25654 | 34116 ft | 441 kts | 234° |
| 2026-04-24 20:23 | 44.24011 | 8.18623 | 34110 ft | 440 kts | 234° |
| 2026-04-24 20:24 | 44.20532 | 8.11602 | 34114 ft | 439 kts | 234° |
| 2026-04-24 20:24 | 44.17046 | 8.04596 | 34109 ft | 439 kts | 234° |
| 2026-04-24 20:25 | 44.13553 | 7.97619 | 34096 ft | 439 kts | 234° |
| 2026-04-24 20:25 | 44.10081 | 7.90689 | 34085 ft | 439 kts | 234° |
| 2026-04-24 20:26 | 44.06585 | 7.83720 | 34080 ft | 439 kts | 234° |
| 2026-04-24 20:26 | 44.03000 | 7.76865 | 34074 ft | 438 kts | 227° |
| 2026-04-24 20:27 | 43.98375 | 7.71429 | 34070 ft | 436 kts | 213° |
| 2026-04-24 20:27 | 43.93374 | 7.66664 | 34069 ft | 436 kts | 213° |
| 2026-04-24 20:28 | 43.88380 | 7.61899 | 34074 ft | 436 kts | 213° |
| 2026-04-24 20:28 | 43.83378 | 7.57130 | 34062 ft | 436 kts | 214° |
| 2026-04-24 20:29 | 43.81717 | 7.55549 | 33935 ft | 437 kts | 214° |
| 2026-04-24 20:29 | 43.78391 | 7.52395 | 33569 ft | 437 kts | 213° |
| 2026-04-24 20:29 | 43.75880 | 7.50018 | 33307 ft | 438 kts | 213° |
| 2026-04-24 20:29 | 43.73357 | 7.47633 | 33035 ft | 439 kts | 213° |
| 2026-04-24 20:30 | 43.70835 | 7.45248 | 32768 ft | 440 kts | 214° |
| 2026-04-24 20:30 | 43.68308 | 7.42860 | 32508 ft | 440 kts | 214° |
| 2026-04-24 20:30 | 43.65772 | 7.40462 | 32249 ft | 441 kts | 214° |
| 2026-04-24 20:30 | 43.63316 | 7.37937 | 31991 ft | 441 kts | 221° |
| 2026-04-24 20:31 | 43.61842 | 7.35987 | 31824 ft | 441 kts | 227° |
| 2026-04-24 20:31 | 43.59928 | 7.32690 | 31574 ft | 440 kts | 234° |
| 2026-04-24 20:31 | 43.58167 | 7.29252 | 31116 ft | 436 kts | 234° |
| 2026-04-24 20:31 | 43.55840 | 7.24750 | 30368 ft | 433 kts | 234° |
| 2026-04-24 20:32 | 43.54654 | 7.22471 | 29964 ft | 432 kts | 234° |
| 2026-04-24 20:32 | 43.52927 | 7.19158 | 29386 ft | 428 kts | 234° |
| 2026-04-24 20:32 | 43.51196 | 7.15842 | 28850 ft | 424 kts | 234° |
| 2026-04-24 20:32 | 43.49480 | 7.12558 | 28304 ft | 421 kts | 234° |
| 2026-04-24 20:33 | 43.47775 | 7.09293 | 27772 ft | 417 kts | 234° |
| 2026-04-24 20:33 | 43.46088 | 7.06059 | 27256 ft | 414 kts | 234° |
| 2026-04-24 20:33 | 43.44434 | 7.02889 | 26752 ft | 411 kts | 234° |
| 2026-04-24 20:33 | 43.42768 | 6.99702 | 26259 ft | 408 kts | 234° |
| 2026-04-24 20:34 | 43.41114 | 6.96546 | 25778 ft | 405 kts | 234° |
| 2026-04-24 20:34 | 43.39470 | 6.93413 | 25311 ft | 403 kts | 234° |
| 2026-04-24 20:34 | 43.37831 | 6.90292 | 24834 ft | 400 kts | 234° |
| 2026-04-24 20:34 | 43.36204 | 6.87200 | 24383 ft | 398 kts | 234° |
| 2026-04-24 20:35 | 43.34582 | 6.84119 | 23905 ft | 396 kts | 234° |
| 2026-04-24 20:35 | 43.32993 | 6.81098 | 23392 ft | 395 kts | 234° |
| 2026-04-24 20:35 | 43.31390 | 6.78057 | 22918 ft | 391 kts | 234° |
| 2026-04-24 20:35 | 43.29800 | 6.75035 | 22430 ft | 388 kts | 234° |
| 2026-04-24 20:36 | 43.28222 | 6.72045 | 21945 ft | 385 kts | 234° |
| 2026-04-24 20:36 | 43.26649 | 6.69071 | 21464 ft | 384 kts | 234° |
| 2026-04-24 20:36 | 43.25086 | 6.66115 | 20960 ft | 382 kts | 234° |
| 2026-04-24 20:36 | 43.23617 | 6.63072 | 20418 ft | 382 kts | 243° |
| 2026-04-24 20:37 | 43.22594 | 6.59724 | 19871 ft | 381 kts | 254° |
| 2026-04-24 20:37 | 43.22089 | 6.56179 | 19403 ft | 378 kts | 266° |
| 2026-04-24 20:37 | 43.22063 | 6.52588 | 18927 ft | 375 kts | 273° |
| 2026-04-24 20:37 | 43.22126 | 6.49018 | 18459 ft | 374 kts | 272° |
| 2026-04-24 20:38 | 43.22180 | 6.45460 | 17939 ft | 372 kts | 272° |
| 2026-04-24 20:38 | 43.22229 | 6.41915 | 17469 ft | 370 kts | 272° |
| 2026-04-24 20:38 | 43.22273 | 6.38448 | 17017 ft | 367 kts | 272° |
| 2026-04-24 20:38 | 43.22320 | 6.34950 | 16566 ft | 365 kts | 272° |
| 2026-04-24 20:39 | 43.22367 | 6.31480 | 16113 ft | 363 kts | 271° |
| 2026-04-24 20:39 | 43.22415 | 6.28024 | 15689 ft | 361 kts | 272° |
| 2026-04-24 20:39 | 43.22464 | 6.24592 | 15250 ft | 359 kts | 272° |
| 2026-04-24 20:39 | 43.22511 | 6.21175 | 14806 ft | 358 kts | 272° |
| 2026-04-24 20:40 | 43.22554 | 6.17770 | 14359 ft | 357 kts | 272° |
| 2026-04-24 20:40 | 43.22597 | 6.14406 | 13912 ft | 355 kts | 272° |
| 2026-04-24 20:40 | 43.22637 | 6.11025 | 13411 ft | 353 kts | 271° |
| 2026-04-24 20:40 | 43.22671 | 6.07677 | 12977 ft | 349 kts | 271° |
| 2026-04-24 20:41 | 43.22700 | 6.04349 | 12523 ft | 346 kts | 271° |
| 2026-04-24 20:41 | 43.22770 | 6.01059 | 12068 ft | 343 kts | 276° |
| 2026-04-24 20:41 | 43.23083 | 5.97826 | 11542 ft | 342 kts | 278° |
| 2026-04-24 20:41 | 43.23405 | 5.94603 | 11029 ft | 341 kts | 278° |
| 2026-04-24 20:42 | 43.23721 | 5.91390 | 10520 ft | 339 kts | 278° |
| 2026-04-24 20:42 | 43.24032 | 5.88203 | 10244 ft | 330 kts | 278° |
| 2026-04-24 20:42 | 43.24325 | 5.85184 | 10128 ft | 317 kts | 277° |
| 2026-04-24 20:42 | 43.24609 | 5.82245 | 10010 ft | 305 kts | 277° |
| 2026-04-24 20:43 | 43.24884 | 5.79402 | 9774 ft | 297 kts | 277° |
| 2026-04-24 20:43 | 43.25153 | 5.76625 | 9260 ft | 291 kts | 277° |
| 2026-04-24 20:43 | 43.25418 | 5.73897 | 8856 ft | 287 kts | 277° |
| 2026-04-24 20:43 | 43.25680 | 5.71179 | 8510 ft | 285 kts | 277° |
| 2026-04-24 20:44 | 43.25938 | 5.68485 | 8166 ft | 283 kts | 277° |
| 2026-04-24 20:44 | 43.26194 | 5.65819 | 7832 ft | 280 kts | 277° |
| 2026-04-24 20:44 | 43.26448 | 5.63179 | 7504 ft | 279 kts | 277° |
| 2026-04-24 20:44 | 43.26658 | 5.60543 | 7171 ft | 276 kts | 271° |
| 2026-04-24 20:45 | 43.26468 | 5.57972 | 6847 ft | 274 kts | 257° |
| 2026-04-24 20:45 | 43.25961 | 5.55457 | 6518 ft | 273 kts | 254° |
| 2026-04-24 20:45 | 43.25453 | 5.52954 | 6179 ft | 271 kts | 254° |
| 2026-04-24 20:45 | 43.24951 | 5.50468 | 5850 ft | 270 kts | 254° |
| 2026-04-24 20:46 | 43.24452 | 5.47991 | 5524 ft | 269 kts | 254° |
| 2026-04-24 20:46 | 43.23959 | 5.45549 | 5309 ft | 260 kts | 254° |
| 2026-04-24 20:46 | 43.23487 | 5.43209 | 5167 ft | 248 kts | 254° |
| 2026-04-24 20:46 | 43.23060 | 5.40993 | 5110 ft | 233 kts | 259° |
| 2026-04-24 20:47 | 43.22940 | 5.38817 | 4910 ft | 228 kts | 269° |
| 2026-04-24 20:47 | 43.22945 | 5.36654 | 4612 ft | 226 kts | 272° |
| 2026-04-24 20:47 | 43.23381 | 5.34631 | 4316 ft | 223 kts | 304° |
| 2026-04-24 20:47 | 43.24541 | 5.33268 | 4025 ft | 222 kts | 336° |
| 2026-04-24 20:48 | 43.26041 | 5.32913 | 3762 ft | 219 kts | 358° |
| 2026-04-24 20:48 | 43.27564 | 5.32883 | 3484 ft | 218 kts | 358° |
| 2026-04-24 20:48 | 43.29077 | 5.32843 | 3202 ft | 217 kts | 355° |
| 2026-04-24 20:48 | 43.30532 | 5.32423 | 2989 ft | 211 kts | 343° |
| 2026-04-24 20:49 | 43.31897 | 5.31896 | 2873 ft | 201 kts | 343° |
| 2026-04-24 20:49 | 43.33188 | 5.31407 | 2707 ft | 184 kts | 343° |
| 2026-04-24 20:49 | 43.34346 | 5.30971 | 2562 ft | 160 kts | 343° |
| 2026-04-24 20:49 | 43.35373 | 5.30584 | 2441 ft | 148 kts | 343° |
| 2026-04-24 20:50 | 43.36347 | 5.30212 | 2335 ft | 143 kts | 342° |
| 2026-04-24 20:50 | 43.37295 | 5.29847 | 2220 ft | 141 kts | 342° |
| 2026-04-24 20:50 | 43.38169 | 5.29285 | 2107 ft | 139 kts | 321° |
| 2026-04-24 20:50 | 43.38859 | 5.28351 | 1753 ft | 141 kts | 311° |
| 2026-04-24 20:51 | 43.39521 | 5.27356 | 1426 ft | 139 kts | 311° |
| 2026-04-24 20:51 | 43.40184 | 5.26396 | 1162 ft | 137 kts | 313° |
| 2026-04-24 20:51 | 43.40849 | 5.25486 | 912 ft | 137 kts | 314° |
| 2026-04-24 20:51 | 43.41518 | 5.24548 | 626 ft | 138 kts | 314° |
| 2026-04-24 20:52 | 43.42191 | 5.23608 | 403 ft | 139 kts | 314° |
| 2026-04-24 20:52 | 43.42836 | 5.22688 | 195 ft | 139 kts | 313° |
| 2026-04-24 20:52 | 43.43501 | 5.21735 | 46 ft | 131 kts | 314° |
| 2026-04-24 20:52 | 43.44031 | 5.21004 | 23 ft | 83 kts | 314° |
| 2026-04-24 20:53 | 43.44128 | 5.20865 | 19 ft | 35 kts | 313° |
| 2026-04-24 20:53 | 43.44195 | 5.20767 | 18 ft | 19 kts | 314° |
| 2026-04-24 20:53 | 43.44253 | 5.20767 | 19 ft | 11 kts | 37° |
| 2026-04-24 20:53 | 43.44305 | 5.20830 | 18 ft | 9 kts | 56° |
| 2026-04-24 20:54 | 43.44295 | 5.20924 | 18 ft | 12 kts | 116° |
| 2026-04-24 20:54 | 43.44248 | 5.21018 | 22 ft | 12 kts | 130° |
| 2026-04-24 20:54 | 43.44195 | 5.21096 | 22 ft | 11 kts | 134° |
| 2026-04-24 20:54 | 43.44142 | 5.21172 | 24 ft | 14 kts | 134° |
| 2026-04-24 20:55 | 43.44071 | 5.21291 | 27 ft | 16 kts | 110° |
| 2026-04-24 20:55 | 43.44126 | 5.21422 | 28 ft | 17 kts | 45° |
| 2026-04-24 20:55 | 43.44109 | 5.21510 | 29 ft | 8 kts | 137° |
| 2026-04-24 20:55 | 43.44071 | 5.21539 | 31 ft | 5 kts | 158° |
| 2026-04-24 20:56 | 43.44040 | 5.21578 | 32 ft | 10 kts | 124° |
| 2026-04-24 20:56 | 43.44035 | 5.21711 | 32 ft | 19 kts | 56° |
| 2026-04-24 20:56 | 43.44119 | 5.21837 | 34 ft | 14 kts | 82° |
| 2026-04-24 20:56 | 43.44071 | 5.21921 | 36 ft | 11 kts | 135° |
| 2026-04-24 20:57 | 43.44023 | 5.21989 | 38 ft | 9 kts | 134° |
| 2026-04-24 20:57 | 43.44001 | 5.22046 | 39 ft | 5 kts | 78° |
| 2026-04-24 20:57 | 43.44012 | 5.22086 | 39 ft | 4 kts | 61° |
| 2026-04-24 20:57 | 43.44023 | 5.22112 | 38 ft | 2 kts | 60° |
| 2026-04-24 20:58 | 43.44024 | 5.22115 | 38 ft | 0 kts | 60° |